Licenciado Manuel Crescencio Rejon Int Airport
MMMD : now visible

Aeroporto :











RITROVATECI SU...

 
LOGIN :

Iscrizione | Disclaimer

   EN    FR    IT 

 









Sommario :    VFR   VFR Marginale   IFR   IFR Intensivo   IFR Molto Intensivo
Visibilità : 
Base nubi : 
>= 8 km
>= 3000ft
5 / 8 km
1000 / 3000 ft
1500m / 5 km
500 / 1000 ft
800 / 1500m
200 / 500 ft
< 800m
< 200 ft
Simboli :   Temporali  Nebbia  Neve Forte  Precipitazioni Forti  Vento > 20 kt






- Altitudine del aeroporto : 38 ft
- Codice IATA : MID


MMMD - Licenciado Manuel Crescencio Rejon Int

ULTIMO METAR :
  • 201049Z 08004KT 7SM SKC 23/22 A3002

METARs OBSOLETI :
  • 200948Z 09004KT 7SM SKC 23/21 A3003
  • 200846Z 09003KT 7SM SKC 23/21 A3003 RMK SLP180 52001 910

TAF TAF MMMD
Valido dal 20 a 06 ore il 21 a 12 ore UTC


200433Z 2006/2112 08008KT P6SM SCT020 TX34/2020Z TN23/2012Z
TEMPO 2011/2015 4SM HZ BKN010
FM201800 04015KT P6SM BKN020
FM210500 34012KT P6SM SCT020
PROB40 2105/2108 6SM -RA BKN020
FM210800 33012KT P6SM SCT020



MetMap, La meteo Aeronautica in un colpo d'occhio ! - Copyright ORBIFLY Dicembre 2007 - Disclaimer

ORBIFLY MET'MAP TEAM :

Programmazione e sviluppo : Alexandra Zaïnal
Concezione : Baudouin d'Aumeries
Aiuto per la programmazione : Marc-Olivier Méhu
Supporto tecnico e logistico : Manuel Goepfert
Aiuto per la traduzione : Arnaldo La Scala

Contatto : metmap@orbifly.com




FONTI E CREDITI :

   NOAA       Earth
Advisory